createdAt,value
2022-08-30T00:01:03.455Z,3.38
2022-08-30T00:03:42.654Z,3.92
2022-08-30T00:06:10.007Z,4.28
2022-08-30T00:08:37.770Z,4.05
2022-08-30T00:11:08.311Z,3.40
2022-08-30T00:13:35.563Z,3.10
2022-08-30T00:16:02.852Z,3.53
2022-08-30T00:18:29.730Z,3.53
2022-08-30T00:20:57.011Z,3.50
2022-08-30T00:23:23.748Z,2.60
2022-08-30T00:25:50.537Z,2.90
2022-08-30T00:28:17.376Z,3.40
2022-08-30T00:30:45.674Z,3.92
2022-08-30T00:33:14.185Z,3.70
2022-08-30T00:35:41.443Z,3.10
2022-08-30T00:38:10.025Z,3.38
2022-08-30T00:40:38.353Z,3.17
2022-08-30T00:43:09.943Z,3.72
2022-08-30T00:45:40.941Z,4.85
2022-08-30T00:48:07.986Z,5.47
2022-08-30T00:50:40.407Z,4.93
2022-08-30T00:53:10.475Z,5.30
2022-08-30T00:55:39.087Z,3.50
2022-08-30T00:58:12.823Z,4.22
2022-08-30T01:00:40.013Z,3.75
2022-08-30T01:03:08.388Z,4.65
2022-08-30T01:05:38.715Z,4.13
2022-08-30T01:08:06.329Z,3.78
2022-08-30T01:10:34.612Z,3.25
2022-08-30T01:13:01.514Z,3.22
2022-08-30T01:15:29.103Z,3.03
2022-08-30T01:17:57.111Z,2.80
2022-08-30T01:20:33.633Z,3.30
2022-08-30T01:23:08.636Z,3.35
2022-08-30T01:25:37.187Z,4.28
2022-08-30T01:28:07.635Z,4.00
2022-08-30T01:30:39.066Z,3.58
2022-08-30T01:33:07.751Z,3.95
2022-08-30T01:35:44.087Z,4.15
2022-08-30T01:38:12.651Z,3.45
2022-08-30T01:40:39.480Z,2.88
2022-08-30T01:43:07.010Z,4.03
2022-08-30T01:45:33.748Z,3.72
2022-08-30T01:48:01.682Z,3.63
2022-08-30T01:50:30.523Z,4.32
2022-08-30T01:52:57.199Z,4.28
2022-08-30T01:55:24.025Z,4.60
2022-08-30T01:57:50.691Z,4.07
2022-08-30T02:00:17.958Z,3.33
2022-08-30T02:02:44.949Z,4.15
2022-08-30T02:05:11.975Z,4.10
2022-08-30T02:07:38.770Z,3.22
2022-08-30T02:10:06.228Z,3.95
2022-08-30T02:12:33.000Z,4.65
2022-08-30T02:15:00.556Z,4.10
2022-08-30T02:17:28.000Z,3.20
2022-08-30T02:19:54.674Z,3.20
2022-08-30T02:22:21.323Z,3.75
2022-08-30T02:24:48.102Z,3.50
2022-08-30T02:27:14.856Z,2.60
2022-08-30T02:29:41.719Z,2.90
2022-08-30T02:32:08.438Z,2.70
2022-08-30T02:34:35.225Z,3.85
2022-08-30T02:37:03.048Z,4.03
2022-08-30T02:39:29.735Z,4.03
2022-08-30T02:41:56.756Z,4.45
2022-08-30T02:44:23.416Z,3.78
2022-08-30T02:46:50.094Z,3.00
2022-08-30T02:49:33.203Z,2.63
2022-08-30T02:52:00.500Z,3.50
2022-08-30T02:54:28.311Z,3.35
2022-08-30T02:56:56.107Z,3.55
2022-08-30T02:59:22.777Z,3.50
2022-08-30T03:01:49.521Z,4.50
2022-08-30T03:04:16.354Z,3.95
2022-08-30T03:06:43.602Z,3.20
2022-08-30T03:09:10.290Z,3.00
2022-08-30T03:11:37.555Z,3.88
2022-08-30T03:14:04.338Z,4.60
2022-08-30T03:16:31.109Z,4.10
2022-08-30T03:18:57.826Z,3.50
2022-08-30T03:21:24.498Z,3.00
2022-08-30T03:23:51.176Z,3.80
2022-08-30T03:26:18.095Z,3.00
2022-08-30T03:28:44.963Z,3.58
2022-08-30T03:31:11.971Z,3.65
2022-08-30T03:33:40.478Z,3.85
2022-08-30T03:36:09.524Z,4.35
2022-08-30T03:38:36.494Z,3.88
2022-08-30T03:41:04.229Z,3.72
2022-08-30T03:43:33.442Z,4.20
2022-08-30T03:46:01.494Z,4.13
2022-08-30T03:48:29.381Z,4.88
2022-08-30T03:50:56.743Z,4.50
2022-08-30T03:53:25.638Z,4.32
2022-08-30T03:55:54.320Z,3.70
2022-08-30T03:58:22.089Z,2.88
2022-08-30T04:00:49.074Z,3.50
2022-08-30T04:03:16.105Z,3.83
2022-08-30T04:05:42.896Z,3.55
2022-08-30T04:08:09.627Z,3.95
2022-08-30T04:10:36.491Z,4.25
2022-08-30T04:13:03.172Z,4.30
2022-08-30T04:15:29.877Z,3.72
2022-08-30T04:17:56.677Z,3.50
2022-08-30T04:20:23.390Z,3.38
2022-08-30T04:22:51.669Z,3.97
2022-08-30T04:25:18.684Z,3.47
2022-08-30T04:27:46.445Z,3.90
2022-08-30T04:30:15.520Z,3.55
2022-08-30T04:32:42.928Z,4.13
2022-08-30T04:35:10.475Z,3.65
2022-08-30T04:37:39.024Z,3.95
2022-08-30T04:40:11.555Z,3.78
2022-08-30T04:42:38.466Z,3.28
2022-08-30T04:45:09.206Z,2.58
2022-08-30T04:47:36.620Z,3.25
2022-08-30T04:50:03.771Z,2.55
2022-08-30T04:52:30.491Z,2.63
2022-08-30T04:54:58.304Z,3.92
2022-08-30T04:57:26.505Z,3.63
2022-08-30T04:59:54.240Z,3.33
2022-08-30T05:02:21.399Z,3.70
2022-08-30T05:05:06.547Z,2.92
2022-08-30T05:07:33.484Z,3.22
2022-08-30T05:10:00.354Z,2.92
2022-08-30T05:12:27.679Z,3.30
2022-08-30T05:14:54.452Z,3.92
2022-08-30T05:17:21.131Z,4.28
2022-08-30T05:19:47.785Z,4.20
2022-08-30T05:22:14.496Z,4.80
2022-08-30T05:24:41.235Z,4.60
2022-08-30T05:27:08.111Z,4.35
2022-08-30T05:29:34.861Z,4.47
2022-08-30T05:32:02.967Z,4.32
2022-08-30T05:34:30.386Z,5.05
2022-08-30T05:36:57.092Z,5.97
2022-08-30T05:39:23.817Z,3.30
2022-08-30T05:41:50.514Z,4.25
2022-08-30T05:44:17.283Z,4.53
2022-08-30T05:46:46.200Z,4.57
2022-08-30T05:49:13.022Z,4.45
2022-08-30T05:51:41.073Z,2.72
2022-08-30T05:54:12.545Z,3.00
2022-08-30T05:56:40.912Z,3.38
2022-08-30T05:59:08.724Z,2.88
2022-08-30T06:01:38.600Z,2.45
2022-08-30T06:04:08.038Z,2.70
2022-08-30T06:06:37.095Z,3.35
2022-08-30T06:09:05.898Z,3.13
2022-08-30T06:11:34.159Z,5.47
2022-08-30T06:14:03.248Z,4.03
2022-08-30T06:16:30.082Z,4.63
2022-08-30T06:18:58.577Z,4.30
2022-08-30T06:21:28.644Z,3.65
2022-08-30T06:23:56.574Z,3.92
2022-08-30T06:26:23.953Z,3.17
2022-08-30T06:28:50.934Z,2.63
2022-08-30T06:31:19.931Z,2.70
2022-08-30T06:33:47.784Z,2.67
2022-08-30T06:36:17.795Z,3.40
2022-08-30T06:38:45.468Z,3.22
2022-08-30T06:41:15.418Z,2.47
2022-08-30T06:43:45.556Z,3.22
2022-08-30T06:46:18.548Z,3.38
2022-08-30T06:48:47.821Z,3.03
2022-08-30T06:51:15.786Z,3.22
2022-08-30T06:53:43.027Z,3.40
2022-08-30T06:56:16.407Z,4.38
2022-08-30T06:58:44.434Z,4.25
2022-08-30T07:01:16.497Z,4.05
2022-08-30T07:03:43.494Z,4.72
2022-08-30T07:06:12.052Z,4.65
2022-08-30T07:08:38.924Z,4.72
2022-08-30T07:11:07.532Z,4.75
2022-08-30T07:13:36.363Z,4.00
2022-08-30T07:16:10.618Z,4.22
2022-08-30T07:18:55.937Z,4.03
2022-08-30T07:21:28.706Z,3.80
2022-08-30T07:23:58.120Z,3.75
2022-08-30T07:26:28.666Z,3.45
2022-08-30T07:28:56.972Z,3.88
2022-08-30T07:31:24.861Z,3.70
2022-08-30T07:33:52.415Z,3.72
2022-08-30T07:36:21.759Z,4.13
2022-08-30T07:38:50.083Z,4.22
2022-08-30T07:41:25.785Z,3.90
2022-08-30T07:43:53.079Z,4.50
2022-08-30T07:46:20.982Z,3.58
2022-08-30T07:48:47.988Z,3.15
2022-08-30T07:51:18.695Z,3.70
2022-08-30T07:53:46.422Z,3.35
2022-08-30T07:56:15.162Z,3.35
2022-08-30T07:58:42.224Z,3.58
2022-08-30T08:01:10.607Z,3.20
2022-08-30T08:03:40.174Z,3.38
2022-08-30T08:06:08.900Z,3.22
2022-08-30T08:08:36.425Z,3.58
2022-08-30T08:11:26.212Z,3.05
2022-08-30T08:16:24.219Z,2.72
2022-08-30T08:18:52.078Z,3.05
2022-08-30T08:21:18.789Z,3.35
2022-08-30T08:23:45.453Z,2.97
2022-08-30T08:26:12.171Z,3.20
2022-08-30T08:28:40.079Z,2.78
2022-08-30T08:31:33.669Z,2.90
2022-08-30T08:34:02.874Z,2.67
2022-08-30T08:36:31.276Z,2.70
2022-08-30T08:38:58.528Z,2.70
2022-08-30T08:41:36.849Z,1.92
2022-08-30T08:44:34.244Z,2.60
2022-08-30T08:47:16.147Z,2.22
2022-08-30T08:49:46.249Z,2.25
2022-08-30T08:52:47.647Z,2.30
2022-08-30T08:55:18.960Z,2.30
2022-08-30T08:57:46.304Z,2.10
2022-08-30T09:00:14.388Z,2.00
2022-08-30T09:02:47.239Z,2.10
2022-08-30T09:05:19.269Z,2.08
2022-08-30T09:07:52.048Z,2.00
2022-08-30T09:10:29.973Z,2.00
2022-08-30T09:13:06.558Z,1.95
2022-08-30T09:15:34.537Z,2.05
2022-08-30T09:18:04.360Z,2.20
2022-08-30T09:20:43.137Z,1.93
2022-08-30T09:26:07.104Z,1.83
2022-08-30T09:28:54.383Z,2.45
2022-08-30T09:31:24.472Z,2.03
2022-08-30T09:34:08.215Z,2.08
2022-08-30T09:36:45.802Z,2.00
2022-08-30T09:39:19.848Z,2.03
2022-08-30T09:41:50.068Z,1.98
2022-08-30T09:44:21.245Z,2.10
2022-08-30T09:46:50.861Z,2.08
2022-08-30T09:49:37.845Z,2.08
2022-08-30T09:52:54.557Z,1.90
2022-08-30T09:55:26.754Z,1.85
2022-08-30T09:58:21.132Z,1.70
2022-08-30T10:01:06.472Z,2.08
2022-08-30T10:04:04.438Z,2.10
2022-08-30T10:06:40.288Z,2.28
2022-08-30T10:09:33.524Z,1.73
2022-08-30T10:12:25.570Z,2.03
2022-08-30T10:15:11.290Z,2.13
2022-08-30T10:18:12.889Z,2.05
2022-08-30T10:20:50.115Z,2.00
2022-08-30T10:23:22.958Z,2.25
2022-08-30T10:25:54.976Z,2.30
2022-08-30T10:28:40.513Z,2.17
2022-08-30T10:31:12.748Z,1.85
2022-08-30T10:33:45.033Z,1.67
2022-08-30T10:36:14.700Z,1.88
2022-08-30T10:38:48.016Z,2.15
2022-08-30T10:41:17.402Z,2.08
2022-08-30T10:44:05.876Z,2.28
2022-08-30T10:46:40.166Z,1.73
2022-08-30T10:49:17.216Z,2.33
2022-08-30T10:51:55.556Z,1.90
2022-08-30T10:54:38.423Z,1.83
2022-08-30T10:57:05.137Z,2.53
2022-08-30T10:59:33.607Z,2.15
2022-08-30T11:02:34.832Z,1.90
2022-08-30T11:05:29.362Z,1.98
2022-08-30T11:08:20.659Z,1.98
2022-08-30T11:10:58.834Z,2.53
2022-08-30T11:13:29.852Z,2.50
2022-08-30T11:16:15.750Z,2.20
2022-08-30T11:18:51.703Z,2.40
2022-08-30T11:21:40.242Z,1.92
2022-08-30T11:24:11.906Z,2.78
2022-08-30T11:26:54.644Z,2.28
2022-08-30T11:29:43.296Z,2.15
2022-08-30T11:32:12.812Z,1.98
2022-08-30T11:34:45.493Z,2.33
2022-08-30T11:37:30.492Z,2.05
2022-08-30T11:40:01.974Z,2.28
2022-08-30T11:42:35.722Z,2.25
2022-08-30T11:45:24.799Z,2.33
2022-08-30T11:47:52.176Z,2.25
2022-08-30T11:50:48.199Z,2.50
2022-08-30T11:53:18.139Z,2.03
2022-08-30T11:56:26.691Z,2.30
2022-08-30T11:59:19.951Z,2.25
2022-08-30T12:01:50.995Z,2.15
2022-08-30T12:04:19.594Z,2.47
2022-08-30T12:06:52.386Z,2.25
2022-08-30T12:09:24.906Z,2.10
2022-08-30T12:11:54.363Z,2.25
2022-08-30T12:14:40.893Z,2.60
2022-08-30T12:17:50.699Z,2.15
2022-08-30T12:20:28.442Z,1.92
2022-08-30T12:22:56.364Z,2.00
2022-08-30T12:25:29.090Z,2.38
2022-08-30T12:28:15.981Z,2.17
2022-08-30T12:30:46.653Z,1.98
2022-08-30T12:33:24.150Z,2.10
2022-08-30T12:35:59.144Z,2.47
2022-08-30T12:38:27.733Z,2.25
2022-08-30T12:40:58.657Z,2.22
2022-08-30T12:43:27.597Z,2.33
2022-08-30T12:46:12.242Z,2.17
2022-08-30T12:48:41.377Z,2.00
2022-08-30T12:51:10.843Z,2.10
2022-08-30T12:53:46.123Z,2.50
2022-08-30T12:56:21.198Z,2.72
2022-08-30T12:58:57.196Z,2.50
2022-08-30T13:01:29.324Z,2.60
2022-08-30T13:04:18.256Z,2.58
2022-08-30T13:06:59.603Z,2.50
2022-08-30T13:09:33.429Z,2.33
2022-08-30T13:12:02.952Z,2.20
2022-08-30T13:14:43.532Z,2.58
2022-08-30T13:17:19.553Z,2.90
2022-08-30T13:20:05.719Z,2.55
2022-08-30T13:22:38.152Z,2.67
2022-08-30T13:25:08.189Z,2.60
2022-08-30T13:27:36.960Z,2.47
2022-08-30T13:30:13.243Z,2.45
2022-08-30T13:32:40.451Z,2.50
2022-08-30T13:35:08.980Z,2.45
2022-08-30T13:37:49.409Z,2.50
2022-08-30T13:40:19.495Z,2.40
2022-08-30T13:42:46.779Z,2.40
2022-08-30T13:48:03.287Z,2.45
2022-08-30T13:50:31.136Z,1.88
2022-08-30T13:52:58.057Z,2.60
2022-08-30T13:55:25.013Z,2.90
2022-08-30T13:57:55.369Z,2.90
2022-08-30T14:00:24.719Z,2.60
2022-08-30T14:03:00.079Z,2.40
2022-08-30T14:06:04.890Z,2.22
2022-08-30T14:11:18.366Z,2.60
2022-08-30T14:16:35.580Z,2.58
2022-08-30T14:19:03.315Z,2.80
2022-08-30T14:21:30.491Z,2.35
2022-08-30T14:23:58.658Z,2.85
2022-08-30T14:26:32.885Z,2.53
2022-08-30T14:29:01.715Z,2.47
2022-08-30T14:31:30.159Z,2.63
2022-08-30T14:33:59.922Z,3.22
2022-08-30T14:36:26.685Z,2.30
2022-08-30T14:38:53.432Z,2.55
2022-08-30T14:41:20.233Z,2.55
2022-08-30T14:43:46.940Z,2.50
2022-08-30T14:46:13.751Z,2.70
2022-08-30T14:48:41.674Z,2.90
2022-08-30T14:51:18.439Z,2.63
2022-08-30T14:53:46.490Z,2.53
2022-08-30T14:56:19.773Z,2.50
2022-08-30T14:58:49.725Z,2.60
2022-08-30T15:01:17.000Z,2.80
2022-08-30T15:03:47.311Z,2.80
2022-08-30T15:06:14.252Z,2.38
2022-08-30T15:08:41.425Z,2.70
2022-08-30T15:11:12.915Z,2.95
2022-08-30T15:13:41.136Z,2.50
2022-08-30T15:16:12.768Z,2.90
2022-08-30T15:18:39.731Z,2.60
2022-08-30T15:21:09.134Z,2.50
2022-08-30T15:23:36.988Z,2.80
2022-08-30T15:26:04.295Z,2.38
2022-08-30T15:28:31.199Z,2.67
2022-08-30T15:30:58.108Z,2.42
2022-08-30T15:33:24.877Z,2.70
2022-08-30T15:35:52.348Z,2.38
2022-08-30T15:38:21.871Z,2.25
2022-08-30T15:40:49.981Z,2.40
2022-08-30T15:43:17.033Z,2.03
2022-08-30T15:45:44.138Z,2.13
2022-08-30T15:48:11.055Z,2.67
2022-08-30T15:50:37.957Z,2.10
2022-08-30T15:53:07.395Z,2.20
2022-08-30T15:55:34.292Z,2.15
2022-08-30T15:58:01.052Z,2.40
2022-08-30T16:00:27.900Z,2.55
2022-08-30T16:02:54.667Z,2.78
2022-08-30T16:05:23.686Z,2.70
2022-08-30T16:07:52.280Z,2.35
2022-08-30T16:10:19.482Z,2.60
2022-08-30T16:12:46.269Z,2.47
2022-08-30T16:15:13.096Z,2.22
2022-08-30T16:17:39.832Z,2.60
2022-08-30T16:20:07.888Z,3.00
2022-08-30T16:22:35.846Z,2.60
2022-08-30T16:25:04.837Z,2.35
2022-08-30T16:27:33.637Z,2.33
2022-08-30T16:30:00.483Z,2.40
2022-08-30T16:32:27.183Z,2.38
2022-08-30T16:34:53.987Z,2.45
2022-08-30T16:37:20.700Z,2.08
2022-08-30T16:39:47.364Z,2.42
2022-08-30T16:42:15.035Z,2.30
2022-08-30T16:44:48.311Z,2.72
2022-08-30T16:47:16.512Z,2.60
2022-08-30T16:49:44.144Z,2.70
2022-08-30T16:52:11.403Z,2.28
2022-08-30T16:54:38.553Z,2.05
2022-08-30T16:57:06.454Z,2.53
2022-08-30T16:59:33.625Z,2.03
2022-08-30T17:02:00.951Z,2.22
2022-08-30T17:04:27.715Z,2.05
2022-08-30T17:06:54.452Z,2.03
2022-08-30T17:09:22.285Z,1.95
2022-08-30T17:11:49.221Z,2.25
2022-08-30T17:14:22.916Z,2.45
2022-08-30T17:16:55.804Z,2.38
2022-08-30T17:19:26.759Z,2.53
2022-08-30T17:21:56.198Z,2.20
2022-08-30T17:24:22.970Z,2.53
2022-08-30T17:26:51.352Z,2.72
2022-08-30T17:29:18.121Z,2.40
2022-08-30T17:31:50.991Z,2.40
2022-08-30T17:34:21.109Z,2.30
2022-08-30T17:36:50.554Z,2.33
2022-08-30T17:39:17.415Z,2.40
2022-08-30T17:41:50.269Z,2.13
2022-08-30T17:44:20.219Z,2.40
2022-08-30T17:46:47.150Z,2.45
2022-08-30T17:49:15.093Z,2.50
2022-08-30T17:51:42.783Z,2.30
2022-08-30T17:54:12.649Z,2.92
2022-08-30T17:56:40.706Z,2.70
2022-08-30T17:59:09.206Z,2.90
2022-08-30T18:01:37.023Z,2.78
2022-08-30T18:04:06.045Z,2.90
2022-08-30T18:06:33.500Z,2.20
2022-08-30T18:09:01.075Z,2.50
2022-08-30T18:11:27.799Z,2.95
2022-08-30T18:13:54.467Z,2.35
2022-08-30T18:16:21.684Z,2.55
2022-08-30T18:21:41.297Z,2.40
2022-08-30T18:24:08.443Z,2.83
2022-08-30T18:26:36.395Z,2.50
2022-08-30T18:29:10.540Z,2.47
2022-08-30T18:31:37.425Z,2.85
2022-08-30T18:34:04.172Z,2.70
2022-08-30T18:36:31.077Z,2.47
2022-08-30T18:38:58.537Z,2.45
2022-08-30T18:41:26.114Z,2.80
2022-08-30T18:44:06.030Z,3.17
2022-08-30T18:47:31.858Z,2.50
2022-08-30T18:49:27.815Z,2.65
2022-08-30T18:51:54.535Z,2.63
2022-08-30T18:54:21.468Z,2.80
2022-08-30T18:56:49.596Z,2.53
2022-08-30T18:59:17.276Z,2.88
2022-08-30T19:01:45.421Z,2.90
2022-08-30T19:04:22.540Z,2.83
2022-08-30T19:06:59.416Z,3.00
2022-08-30T19:09:26.598Z,2.70
2022-08-30T19:11:54.221Z,2.70
2022-08-30T19:14:21.409Z,2.78
2022-08-30T19:16:48.766Z,3.00
2022-08-30T19:19:16.014Z,3.08
2022-08-30T19:21:42.722Z,2.90
2022-08-30T19:24:09.545Z,3.33
2022-08-30T19:26:38.313Z,2.85
2022-08-30T19:29:06.753Z,2.70
2022-08-30T19:31:34.001Z,2.92
2022-08-30T19:34:01.077Z,2.95
2022-08-30T19:36:28.831Z,2.88
2022-08-30T19:38:55.765Z,2.90
2022-08-30T19:41:23.200Z,3.20
2022-08-30T19:43:51.547Z,3.30
2022-08-30T19:46:18.239Z,3.25
2022-08-30T19:48:45.086Z,3.20
2022-08-30T19:51:13.845Z,3.47
2022-08-30T19:53:41.511Z,3.00
2022-08-30T19:56:08.348Z,2.90
2022-08-30T19:58:35.047Z,2.70
2022-08-30T20:01:13.054Z,3.22
2022-08-30T20:03:47.424Z,3.08
2022-08-30T20:08:47.127Z,3.15
2022-08-30T20:11:18.826Z,2.80
2022-08-30T20:13:45.865Z,2.92
2022-08-30T20:16:14.257Z,3.25
2022-08-30T20:18:43.409Z,4.03
2022-08-30T20:21:13.463Z,3.55
2022-08-30T20:23:41.974Z,3.35
2022-08-30T20:24:26.994Z,2.67
2022-08-30T20:26:10.013Z,3.33
2022-08-30T20:28:37.815Z,3.33
2022-08-30T20:31:08.565Z,3.30
2022-08-30T20:33:37.610Z,2.88
2022-08-30T20:36:06.633Z,3.08
2022-08-30T20:38:33.551Z,2.95
2022-08-30T20:41:02.537Z,2.97
2022-08-30T20:43:30.459Z,2.95
2022-08-30T20:45:57.355Z,3.22
2022-08-30T20:48:26.019Z,3.50
2022-08-30T20:50:52.698Z,3.15
2022-08-30T20:53:19.351Z,2.97
2022-08-30T20:55:47.342Z,2.75
2022-08-30T20:58:14.398Z,2.85
2022-08-30T21:00:45.867Z,2.90
2022-08-30T21:03:27.611Z,3.78
2022-08-30T21:05:55.382Z,2.85
2022-08-30T21:08:22.123Z,3.20
2022-08-30T21:10:48.922Z,2.88
2022-08-30T21:13:15.783Z,2.92
2022-08-30T21:15:45.902Z,2.80
2022-08-30T21:18:14.183Z,2.67
2022-08-30T21:20:41.259Z,2.72
2022-08-30T21:23:08.128Z,2.42
2022-08-30T21:25:39.133Z,2.53
2022-08-30T21:28:06.901Z,2.78
2022-08-30T21:30:34.905Z,2.40
2022-08-30T21:33:04.668Z,2.70
2022-08-30T21:35:49.987Z,2.40
2022-08-30T21:38:17.198Z,2.58
2022-08-30T21:40:44.427Z,2.90
2022-08-30T21:43:11.409Z,2.70
2022-08-30T21:45:45.202Z,2.63
2022-08-30T21:48:13.672Z,2.50
2022-08-30T21:50:43.640Z,2.50
2022-08-30T21:53:10.625Z,2.75
2022-08-30T21:55:37.384Z,2.67
2022-08-30T21:58:04.037Z,2.90
2022-08-30T22:00:31.731Z,2.50
2022-08-30T22:02:58.501Z,2.90
2022-08-30T22:05:25.395Z,2.17
2022-08-30T22:07:52.079Z,2.50
2022-08-30T22:10:19.575Z,2.83
2022-08-30T22:12:46.283Z,2.30
2022-08-30T22:15:14.322Z,2.47
2022-08-30T22:17:41.264Z,2.47
2022-08-30T22:20:08.685Z,2.78
2022-08-30T22:22:35.379Z,2.35
2022-08-30T22:25:02.621Z,2.45
2022-08-30T22:27:31.287Z,2.67
2022-08-30T22:29:58.100Z,2.95
2022-08-30T22:32:24.779Z,2.80
2022-08-30T22:34:51.538Z,2.53
2022-08-30T22:37:18.260Z,2.63
2022-08-30T22:39:45.070Z,2.83
2022-08-30T22:42:11.737Z,2.88
2022-08-30T22:44:38.425Z,2.83
2022-08-30T22:47:05.317Z,3.30
2022-08-30T22:49:32.229Z,2.72
2022-08-30T22:51:58.929Z,2.63
2022-08-30T22:54:25.575Z,2.30
2022-08-30T22:56:52.278Z,2.40
2022-08-30T22:59:18.990Z,2.55
2022-08-30T23:01:47.027Z,2.35
2022-08-30T23:04:13.906Z,2.10
2022-08-30T23:06:41.052Z,2.60
2022-08-30T23:09:08.241Z,2.78
2022-08-30T23:11:38.132Z,2.50
2022-08-30T23:14:05.931Z,2.30
2022-08-30T23:16:33.656Z,2.47
2022-08-30T23:19:00.405Z,2.58
2022-08-30T23:21:29.164Z,2.53
2022-08-30T23:24:15.474Z,2.55
2022-08-30T23:27:03.197Z,2.58
2022-08-30T23:29:49.238Z,2.60
2022-08-30T23:32:34.684Z,2.78
2022-08-30T23:35:20.041Z,2.58
2022-08-30T23:38:10.412Z,2.63
2022-08-30T23:40:55.770Z,2.40
2022-08-30T23:43:41.215Z,2.88
2022-08-30T23:46:26.640Z,2.72
2022-08-30T23:49:12.076Z,2.53
2022-08-30T23:51:57.619Z,2.63
2022-08-30T23:54:43.508Z,2.65
2022-08-30T23:57:28.980Z,3.00
